Latest Weather Observations for Marble Bar

IDW60801

Issued at 4:33 pm WST Sunday 25 September 2016 (issued every 30 minutes, with the page automatically refreshed every 10 minutes)

About weather observations | Map of weather stations | Latest weather observations for WA | Other Formats
Station Details ID: 004106 Name: MARBLE BAR Lat: -21.18 Lon: 119.75 Height: 182.3 m
Data from the previous 72 hours. | See also: Recent months at Marble Bar
Date/Time
WST
Temp
°C
App
Temp
°C
Dew
Point
°C
Rel
Hum
%
Delta-T
°C
Wind Press
QNH
hPa
Press
MSL
hPa
Rain since
9am
mm
Dir  Spd
km/h
Gust
km/h
Spd
kts
Gust
kts
25/04:30pm 32.0 26.1 -2.1 11 16.1 NW 19 41 10 22 1007.9 1006.9 0.0
25/04:00pm 32.0 25.9 -2.1 11 16.1 NW 20 32 11 17 1008.0 1007.0 0.0
25/03:30pm 32.2 26.0 -3.2 10 16.4 NW 20 32 11 17 1007.9 1006.9 0.0
25/03:00pm 32.9 26.0 -5.7 8 17.3 NW 22 32 12 17 1007.9 1006.9 0.0
25/02:30pm 33.6 27.2 -5.2 8 17.6 NNW 20 33 11 18 1008.1 1007.1 0.0
25/02:00pm 33.5 27.6 -5.2 8 17.5 NW 17 26 9 14 1008.3 1007.3 0.0
25/01:30pm 33.6 27.2 -5.2 8 17.6 NW 20 30 11 16 1008.7 1007.7 0.0
25/01:00pm 32.8 28.6 -4.2 9 17.0 NW 9 22 5 12 1009.2 1008.2 0.0
25/12:30pm 32.8 27.0 -4.2 9 16.9 NNW 17 26 9 14 1009.5 1008.5 0.0
25/12:00pm 32.3 26.9 -4.6 9 16.7 N 15 26 8 14 1010.0 1009.1 0.0
25/11:30am 31.8 26.9 -3.5 10 16.2 N 13 24 7 13 1010.4 1009.5 0.0
25/11:00am 31.6 27.4 -3.7 10 16.2 NNW 9 17 5 9 1010.9 1010.0 0.0
25/10:30am 30.6 26.5 -3.2 11 15.5 NNE 9 15 5 8 1011.2 1010.3 0.0
25/10:00am 29.5 25.9 -4.0 11 15.0 ENE 6 9 3 5 1011.4 1010.5 0.0
25/09:30am 28.9 25.3 -3.3 12 14.5 SE 6 15 3 8 1011.7 1010.8 0.0
25/09:00am 26.9 23.4 -2.8 14 13.3 ESE 6 9 3 5 1012.0 1011.0 0.0
25/08:30am 25.5 22.5 -2.1 16 12.4 ESE 4 7 2 4 1012.0 1011.0 0.0
25/08:00am 24.1 21.2 -0.9 19 11.3 E 4 6 2 3 1011.8 1010.9 0.0
25/07:30am 22.6 19.7 -0.8 21 10.5 ENE 4 6 2 3 1011.6 1010.7 0.0
25/07:00am 20.2 18.4 1.1 28 8.7 CALM 0 0 0 0 1011.2 1010.3 0.0
25/06:30am 17.3 15.5 0.9 33 7.3 CALM 0 0 0 0 1011.0 1010.1 0.0
25/06:00am 15.2 13.2 -0.1 35 6.5 CALM 0 0 0 0 1010.6 1009.7 0.0
25/05:30am 15.5 13.5 0.1 35 6.6 CALM 0 0 0 0 1010.6 1009.7 0.0
25/05:00am 16.1 14.2 0.3 34 6.9 CALM 0 2 0 1 1010.4 1009.5 0.0
25/04:30am 17.1 14.8 0.3 32 7.3 E 2 6 1 3 1010.1 1009.2 0.0
25/04:00am 18.3 16.5 1.3 32 7.7 CALM 0 6 0 3 1009.8 1008.9 0.0
25/03:30am 19.6 17.0 1.1 29 8.4 SSW 4 6 2 3 1009.6 1008.6 0.0
25/03:00am 20.4 17.6 1.8 29 8.6 WSW 6 9 3 5 1009.5 1008.5 0.0
25/02:30am 20.3 17.5 2.2 30 8.5 SSW 6 9 3 5 1009.5 1008.5 0.0
25/02:00am 20.9 18.0 1.7 28 8.9 SSW 6 9 3 5 1009.8 1008.9 0.0
25/01:30am 22.1 18.3 1.7 26 9.6 WSW 11 15 6 8 1009.9 1009.0 0.0
25/01:00am 19.7 16.3 -0.3 26 8.9 SW 7 9 4 5 1010.1 1009.2 0.0
25/12:30am 20.8 18.4 -0.5 24 9.5 E 2 6 1 3 1010.5 1009.6 0.0
25/12:00am 20.6 17.4 -0.7 24 9.4 E 6 11 3 6 1010.6 1009.7 0.0
 
Date/Time
WST
Temp
°C
App
Temp
°C
Dew
Point
°C
Rel
Hum
%
Delta-T
°C
Wind Press
QNH
hPa
Press
MSL
hPa
Rain since
9am
mm
Dir  Spd
km/h
Gust
km/h
Spd
kts
Gust
kts
24/11:30pm 22.2 18.7 -1.1 21 10.4 WNW 7 13 4 7 1010.8 1009.9 0.0
24/11:00pm 23.0 19.6 -0.5 21 10.6 WNW 7 11 4 6 1011.1 1010.2 0.0
24/10:30pm 22.3 18.9 -1.7 20 10.6 NW 6 7 3 4 1011.2 1010.3 0.0
24/10:00pm 20.3 17.9 -3.4 20 9.9 CALM 0 0 0 0 1011.1 1010.2 0.0
24/09:30pm 21.6 19.1 -3.7 18 10.6 CALM 0 0 0 0 1011.3 1010.4 0.0
24/09:00pm 23.0 20.5 -4.1 16 11.5 CALM 0 0 0 0 1011.2 1010.3 0.0
24/08:30pm 22.7 20.1 -5.2 15 11.5 CALM 0 0 0 0 1011.1 1010.2 0.0
24/08:00pm 24.0 21.5 -4.2 15 12.0 CALM 0 0 0 0 1011.0 1010.1 0.0
24/07:30pm 24.6 21.3 -4.6 14 12.4 E 4 6 2 3 1010.7 1009.8 0.0
24/07:00pm 25.7 22.4 -4.7 13 13.0 ENE 4 6 2 3 1010.3 1009.4 0.0
24/06:30pm 27.6 25.1 -4.3 12 14.0 CALM 0 0 0 0 1010.1 1009.2 0.0
24/06:00pm 29.5 26.3 -6.7 9 15.5 W 2 4 1 2 1009.9 1009.0 0.0
24/05:30pm 30.7 26.9 -5.8 9 16.0 WNW 6 7 3 4 1009.7 1008.7 0.0
24/05:00pm 31.1 28.1 -5.5 9 16.2 SE 2 9 1 5 1009.5 1008.5 0.0
24/04:30pm 31.4 27.6 -5.2 9 16.3 WSW 6 11 3 6 1009.4 1008.4 0.0
24/04:00pm 31.8 28.1 -4.9 9 16.5 S 6 11 3 6 1009.2 1008.2 0.0
24/03:30pm 32.2 28.9 -4.6 9 16.6 N 4 9 2 5 1009.3 1008.3 0.0
24/03:00pm 31.2 27.4 -5.4 9 16.2 NNE 6 15 3 8 1009.3 1008.3 0.0
24/02:30pm 31.2 27.0 -4.0 10 16.0 ENE 9 19 5 10 1009.5 1008.5 0.0
24/02:00pm 30.9 26.8 -3.0 11 15.6 N 9 17 5 9 1009.9 1009.0 0.0
24/01:30pm 30.9 26.8 -3.0 11 15.6 ENE 9 15 5 8 1010.4 1009.5 0.0
24/01:00pm 31.1 27.6 -2.8 11 15.7 SW 6 11 3 6 1010.8 1009.9 0.0
24/12:30pm 29.7 25.4 -1.6 13 14.6 E 11 20 6 11 1011.3 1010.4 0.0
24/12:00pm 30.5 25.9 -1.0 13 15.0 SE 13 22 7 12 1012.0 1011.0 0.0
24/11:30am 29.1 24.1 -1.1 14 14.2 ESE 15 28 8 15 1012.6 1011.6 0.0
24/11:00am 28.6 23.6 -1.5 14 14.0 SE 15 32 8 17 1013.2 1012.2 0.0
24/10:30am 28.1 22.8 -0.9 15 13.6 ESE 17 30 9 16 1013.7 1012.7 0.0
24/10:00am 27.1 20.7 -1.7 15 13.2 ESE 22 28 12 15 1014.1 1013.1 0.0
24/09:30am 26.3 19.5 -1.5 16 12.7 SE 24 35 13 19 1014.3 1013.3 0.0
24/09:00am 25.3 18.9 -1.5 17 12.1 SE 22 32 12 17 1014.6 1013.7 0.0
24/08:30am 24.7 18.4 -1.2 18 11.7 ESE 22 30 12 16 1014.6 1013.7 0.0
24/08:00am 23.4 17.6 -1.5 19 11.1 SE 19 28 10 15 1014.4 1013.4 0.0
24/07:30am 21.9 16.1 -1.4 21 10.3 SSE 19 28 10 15 1014.2 1013.2 0.0
24/07:00am 21.3 16.6 -1.9 21 10.1 SE 13 20 7 11 1013.8 1012.8 0.0
24/06:30am 20.6 15.4 -2.5 21 9.8 SSE 15 22 8 12 1013.4 1012.4 0.0
24/06:00am 19.8 15.0 -2.5 22 9.4 S 13 19 7 10 1013.0 1012.0 0.0
24/05:30am 20.2 14.6 -2.8 21 9.7 S 17 22 9 12 1012.6 1011.6 0.0
24/05:00am 20.1 15.3 -2.3 22 9.6 S 13 19 7 10 1012.1 1011.1 0.0
24/04:30am 20.3 15.6 -1.5 23 9.5 S 13 17 7 9 1011.7 1010.8 0.0
24/04:00am 21.0 16.4 -0.9 23 9.7 SSE 13 20 7 11 1011.3 1010.4 0.0
24/03:30am 21.4 16.5 -0.6 23 9.8 SSE 15 20 8 11 1011.2 1010.3 0.0
24/03:00am 21.9 17.1 0.4 24 9.8 SSE 15 24 8 13 1011.0 1010.1 0.0
24/02:30am 21.5 17.5 0.7 25 9.5 S 11 15 6 8 1010.9 1010.0 0.0
24/02:00am 21.7 18.1 0.8 25 9.6 S 9 15 5 8 1010.8 1009.9 0.0
24/01:30am 20.7 17.6 1.6 28 8.8 S 7 11 4 6 1010.8 1009.9 0.0
24/01:00am 20.9 18.3 1.2 27 9.1 SSE 4 6 2 3 1010.8 1009.9 0.0
24/12:30am 22.4 19.9 1.4 25 9.8 SSE 4 6 2 3 1010.9 1010.0 0.0
24/12:00am 23.9 20.1 1.5 23 10.6 S 11 15 6 8 1011.0 1010.1 0.0
 
Date/Time
WST
Temp
°C
App
Temp
°C
Dew
Point
°C
Rel
Hum
%
Delta-T
°C
Wind Press
QNH
hPa
Press
MSL
hPa
Rain since
9am
mm
Dir  Spd
km/h
Gust
km/h
Spd
kts
Gust
kts
23/11:30pm 24.5 20.6 1.4 22 11.0 S 11 15 6 8 1011.0 1010.1 0.0
23/11:00pm 24.4 21.0 4.2 27 10.1 SSW 11 19 6 10 1011.0 1010.1 0.0
23/10:30pm 24.2 22.6 8.6 37 8.4 SW 7 9 4 5 1010.9 1010.0 0.0
23/10:00pm 25.2 21.9 9.5 37 8.7 W 17 22 9 12 1010.6 1009.7 0.0
23/09:30pm 25.6 22.3 9.4 36 8.9 WNW 17 24 9 13 1010.4 1009.5 0.0
23/09:00pm 25.7 23.6 9.9 37 8.8 WNW 11 17 6 9 1010.1 1009.2 0.0
23/08:30pm 26.6 24.3 10.3 36 9.2 NW 13 20 7 11 1009.8 1008.9 0.0
23/08:00pm 27.1 24.9 10.8 36 9.3 NW 13 19 7 10 1009.5 1008.5 0.0
23/07:30pm 28.2 25.9 7.4 27 11.2 WNW 9 19 5 10 1009.1 1008.1 0.0
23/07:00pm 29.1 25.0 -3.2 12 14.6 W 9 11 5 6 1008.4 1007.4 0.0
23/06:30pm 30.3 25.4 -3.4 11 15.3 W 13 22 7 12 1008.0 1007.0 0.0
23/06:00pm 30.7 26.2 -3.1 11 15.5 W 11 17 6 9 1007.6 1006.6 0.0
23/05:30pm 32.0 26.0 -3.4 10 16.3 W 19 28 10 15 1007.4 1006.4 0.0
23/05:00pm 32.6 26.6 -1.7 11 16.4 W 20 32 11 17 1007.2 1006.2 0.0
23/04:30pm 33.1 26.2 -0.1 12 16.3 W 26 39 14 21 1007.1 1006.1 0.0
23/04:00pm 33.8 28.1 2.6 14 16.1 W 22 37 12 20 1007.0 1006.0 0.0
23/03:30pm 34.3 27.5 3.0 14 16.3 WNW 28 41 15 22 1007.0 1006.0 0.0
23/03:11pm 33.9 27.0 2.7 14 16.1 W 28 48 15 26 1007.0 1006.0 0.0
23/03:00pm 34.0 28.1 3.7 15 16.0 WNW 24 37 13 20 1007.1 1006.1 0.0
23/02:30pm 33.9 27.8 4.6 16 15.6 WNW 26 39 14 21 1007.2 1006.2 0.0
23/02:06pm 33.2 26.9 5.7 18 14.8 WNW 28 46 15 25 1007.4 1006.4 0.0
23/02:00pm 33.9 28.5 6.3 18 15.1 WNW 24 37 13 20 1007.5 1006.5 0.0
23/01:30pm 33.6 28.7 8.3 21 14.3 WNW 24 37 13 20 1008.0 1007.0 0.0
23/01:00pm 32.8 28.3 11.3 27 12.7 W 26 39 14 21 1008.5 1007.5 0.0
23/12:44pm 32.1 27.3 11.8 29 12.0 NW 28 46 15 25 1008.7 1007.7 0.0
23/12:30pm 32.5 29.2 12.7 30 11.9 W 22 37 12 20 1008.9 1007.9 0.0
23/12:00pm 31.8 27.8 13.1 32 11.3 W 26 39 14 21 1009.3 1008.3 0.0
23/11:30am 30.7 27.4 13.9 36 10.2 WNW 24 35 13 19 1009.9 1009.0 0.0
23/11:00am 30.9 28.5 14.5 37 10.1 WNW 20 30 11 16 1010.5 1009.6 0.0
23/10:30am 29.3 27.1 14.3 40 9.1 WNW 19 28 10 15 1011.1 1010.2 0.0
23/10:00am 29.4 27.3 14.8 41 9.0 WNW 19 30 10 16 1011.4 1010.5 0.0
23/09:30am 29.4 27.8 15.1 41 8.8 W 17 32 9 17 1011.8 1010.9 0.0
23/09:00am 27.6 25.8 15.6 48 7.4 WSW 19 28 10 15 1012.0 1011.0 0.0
23/08:30am 27.2 25.9 15.9 50 7.0 W 17 26 9 14 1012.2 1011.2 0.0
23/08:00am 26.2 24.9 15.9 53 6.3 W 17 22 9 12 1012.2 1011.2 0.0
23/07:30am 25.6 24.9 16.5 57 5.6 W 15 20 8 11 1012.0 1011.0 0.0
23/07:00am 24.4 25.3 17.6 66 4.3 W 9 13 5 7 1011.7 1010.8 0.0
23/06:30am 23.6 26.1 17.3 67 3.9 CALM 0 2 0 1 1011.7 1010.8 0.0
23/06:00am 22.7 24.5 16.5 68 3.8 N 2 6 1 3 1011.4 1010.5 0.0
23/05:30am 23.3 23.9 16.8 67 4.0 WNW 9 15 5 8 1011.1 1010.2 0.0
23/05:00am 23.5 24.6 16.5 65 4.3 W 6 9 3 5 1010.8 1009.9 0.0
23/04:30am 23.7 24.8 16.5 64 4.4 WSW 6 7 3 4 1010.4 1009.5 0.0
23/04:00am 24.0 24.5 16.5 63 4.6 W 9 15 5 8 1010.1 1009.2 0.0
23/03:30am 24.1 24.2 16.4 62 4.7 W 11 19 6 10 1010.0 1009.1 0.0
23/03:00am 24.4 24.7 16.1 60 5.1 WNW 9 15 5 8 1010.1 1009.2 0.0
23/02:30am 24.3 24.6 16.0 60 5.1 WNW 9 17 5 9 1010.3 1009.4 0.0
23/02:00am 24.4 24.5 15.6 58 5.4 NW 9 15 5 8 1010.3 1009.4 0.0
23/01:30am 24.8 24.0 15.1 54 5.9 NW 13 19 7 10 1010.5 1009.6 0.0
23/01:00am 25.5 24.3 14.0 49 6.9 WNW 13 19 7 10 1010.8 1009.9 0.0
23/12:30am 25.6 23.7 13.1 46 7.3 NW 15 28 8 15 1011.2 1010.3 0.0
23/12:00am 25.9 24.0 13.1 45 7.5 WNW 15 24 8 13 1011.2 1010.3 0.0
 
Date/Time
WST
Temp
°C
App
Temp
°C
Dew
Point
°C
Rel
Hum
%
Delta-T
°C
Wind Press
QNH
hPa
Press
MSL
hPa
Rain since
9am
mm
Dir  Spd
km/h
Gust
km/h
Spd
kts
Gust
kts
22/11:30pm 26.2 23.7 12.3 42 8.1 WNW 17 24 9 13 1011.4 1010.5 0.0
22/11:00pm 26.6 23.6 11.9 40 8.5 WNW 19 26 10 14 1011.7 1010.8 0.0
22/10:30pm 27.0 23.9 11.5 38 8.9 NW 19 28 10 15 1011.8 1010.9 0.0
22/10:00pm 27.4 24.0 10.6 35 9.6 NW 19 28 10 15 1011.8 1010.9 0.0
22/09:30pm 27.8 24.6 11.4 36 9.5 NW 19 26 10 14 1011.8 1010.9 0.0
22/09:00pm 28.1 24.3 11.2 35 9.7 WNW 22 35 12 19 1012.0 1011.0 0.0
22/08:30pm 28.6 24.9 10.3 32 10.4 NW 20 30 11 16 1012.0 1011.0 0.0
22/08:00pm 29.2 24.4 10.3 31 10.8 NW 26 37 14 20 1011.7 1010.8 0.0
22/07:30pm 29.7 24.9 10.3 30 11.1 NW 26 44 14 24 1011.5 1010.6 0.0
22/07:00pm 30.5 26.1 10.5 29 11.5 NW 24 33 13 18 1011.0 1010.1 0.0
22/06:30pm 31.4 27.9 10.2 27 12.2 WNW 19 35 10 19 1010.5 1009.6 0.0
22/06:00pm 31.6 28.6 9.2 25 12.7 WNW 15 24 8 13 1010.1 1009.2 0.0
22/05:30pm 32.1 27.2 8.4 23 13.3 WNW 24 33 13 18 1010.0 1009.1 0.0
22/05:00pm 33.2 28.3 8.6 22 13.9 W 24 33 13 18 1009.8 1008.9 0.0

Other Formats:

Comma delimited format used in spreadsheet applications
http://www.bom.gov.au/fwo/IDW60801/IDW60801.95317.axf

JavaScript Object Notation format (JSON) in row-major order
http://www.bom.gov.au/fwo/IDW60801/IDW60801.95317.json